createdAt,value
2022-11-14T00:01:40.832Z,4.50
2022-11-14T00:06:42.604Z,4.50
2022-11-14T00:11:44.251Z,4.50
2022-11-14T00:16:46.586Z,4.50
2022-11-14T00:21:48.182Z,4.50
2022-11-14T00:26:49.790Z,4.40
2022-11-14T00:57:22.689Z,4.00
2022-11-14T01:02:24.640Z,4.00
2022-11-14T01:07:26.276Z,4.00
2022-11-14T01:12:27.922Z,4.00
2022-11-14T01:17:29.693Z,3.90
2022-11-14T01:22:31.443Z,3.90
2022-11-14T01:53:04.888Z,3.70
2022-11-14T01:58:07.074Z,3.60
2022-11-14T02:03:08.892Z,3.60
2022-11-14T02:08:13.878Z,3.50
2022-11-14T02:13:15.554Z,3.50
2022-11-14T02:31:03.022Z,3.30
2022-11-14T02:36:04.862Z,3.30
2022-11-14T02:41:06.451Z,3.30
2022-11-14T02:46:08.106Z,3.30
2022-11-14T02:51:09.747Z,3.30
2022-11-14T02:56:11.351Z,3.40
2022-11-14T03:01:20.664Z,3.40
2022-11-14T03:06:23.007Z,3.40
2022-11-14T03:11:24.709Z,3.50
2022-11-14T03:16:26.534Z,3.60
2022-11-14T03:40:34.947Z,3.60
2022-11-14T03:45:37.547Z,3.60
2022-11-14T03:50:39.859Z,3.70
2022-11-14T03:55:43.750Z,3.70
2022-11-14T04:00:45.550Z,3.60
2022-11-14T04:05:47.451Z,3.60
2022-11-14T04:10:49.683Z,3.60
2022-11-14T04:15:58.416Z,3.60
2022-11-14T04:21:00.107Z,3.60
2022-11-14T04:26:01.809Z,3.60
2022-11-14T04:31:03.579Z,3.60
2022-11-14T04:36:05.386Z,3.50
2022-11-14T04:41:06.991Z,3.50
2022-11-14T04:46:08.633Z,3.50
2022-11-14T04:51:10.239Z,3.50
2022-11-14T04:56:11.865Z,3.50
2022-11-14T05:01:14.452Z,3.50
2022-11-14T05:06:16.126Z,3.50
2022-11-14T05:11:19.881Z,3.40
2022-11-14T05:16:21.492Z,3.40
2022-11-14T05:21:23.364Z,3.40
2022-11-14T05:26:25.036Z,3.40
2022-11-14T05:31:26.641Z,3.40
2022-11-14T05:36:28.303Z,3.30
2022-11-14T05:41:29.918Z,3.30
2022-11-14T05:46:31.520Z,3.30
2022-11-14T05:51:33.159Z,3.30
2022-11-14T05:56:34.892Z,3.30
2022-11-14T06:01:36.691Z,3.40
2022-11-14T06:06:38.331Z,3.30
2022-11-14T06:11:39.947Z,3.40
2022-11-14T06:16:41.742Z,3.50
2022-11-14T06:21:43.359Z,3.60
2022-11-14T06:26:44.962Z,3.70
2022-11-14T06:31:46.682Z,3.80
2022-11-14T06:36:48.392Z,3.90
2022-11-14T06:41:50.114Z,4.00
2022-11-14T06:46:51.712Z,4.10
2022-11-14T06:51:54.083Z,4.20
2022-11-14T06:56:55.819Z,4.30
2022-11-14T07:01:57.503Z,4.40
2022-11-14T07:06:59.211Z,4.50
2022-11-14T07:12:00.873Z,4.50
2022-11-14T07:17:02.675Z,4.60
2022-11-14T07:22:04.591Z,4.70
2022-11-14T07:27:08.841Z,5.00
2022-11-14T07:32:10.486Z,5.00
2022-11-14T07:37:12.158Z,5.30
2022-11-14T07:42:13.895Z,5.50
2022-11-14T07:47:15.688Z,5.60
2022-11-14T07:52:17.422Z,5.80
2022-11-14T07:57:19.243Z,5.90
2022-11-14T08:02:20.987Z,6.00
2022-11-14T08:07:22.808Z,6.10
2022-11-14T08:12:24.568Z,6.10
2022-11-14T08:17:26.313Z,6.20
2022-11-14T08:22:28.101Z,6.30
2022-11-14T08:27:30.012Z,6.30
2022-11-14T08:32:31.752Z,6.40
2022-11-14T08:37:34.628Z,6.40
2022-11-14T08:42:36.432Z,6.40
2022-11-14T08:47:38.210Z,6.40
2022-11-14T08:52:39.955Z,6.50
2022-11-14T08:57:46.597Z,6.60
2022-11-14T09:02:50.970Z,6.60
2022-11-14T09:07:55.331Z,6.60
2022-11-14T09:12:58.256Z,6.70
2022-11-14T09:18:00.013Z,6.80
2022-11-14T09:23:02.627Z,6.80
2022-11-14T09:28:07.130Z,6.90
2022-11-14T09:33:11.835Z,7.00
2022-11-14T09:38:13.965Z,7.00
2022-11-14T09:43:34.897Z,7.00
2022-11-14T09:48:36.844Z,7.10
2022-11-14T09:53:47.718Z,7.10
2022-11-14T09:58:49.699Z,7.20
2022-11-14T10:03:56.729Z,7.20
2022-11-14T10:09:40.167Z,7.20
2022-11-14T10:15:08.776Z,7.30
2022-11-14T10:20:22.073Z,7.30
2022-11-14T10:25:38.244Z,7.50
2022-11-14T10:31:05.947Z,7.60
2022-11-14T10:36:13.694Z,7.60
2022-11-14T10:41:34.615Z,7.60
2022-11-14T10:46:41.684Z,7.60
2022-11-14T10:51:47.940Z,7.70
2022-11-14T10:56:51.923Z,7.70
2022-11-14T11:01:58.555Z,7.70
2022-11-14T11:07:09.574Z,7.70
2022-11-14T11:12:20.568Z,7.80
2022-11-14T11:17:23.517Z,7.70
2022-11-14T11:22:36.773Z,7.70
2022-11-14T11:27:38.488Z,7.80
2022-11-14T11:32:40.259Z,7.80
2022-11-14T11:38:03.199Z,7.80
2022-11-14T11:43:41.323Z,7.90
2022-11-14T11:48:46.470Z,8.00
2022-11-14T11:54:17.345Z,8.10
2022-11-14T11:59:42.354Z,8.10
2022-11-14T12:04:44.211Z,8.20
2022-11-14T12:10:09.907Z,8.30
2022-11-14T12:15:29.300Z,8.30
2022-11-14T12:20:36.675Z,8.30
2022-11-14T12:26:08.000Z,8.40
2022-11-14T12:31:13.637Z,8.40
2022-11-14T12:36:15.929Z,8.50
2022-11-14T12:41:26.251Z,8.50
2022-11-14T12:47:04.109Z,8.50
2022-11-14T12:52:41.840Z,8.50
2022-11-14T12:58:19.766Z,8.50
2022-11-14T13:03:33.743Z,8.50
2022-11-14T13:08:50.874Z,8.50
2022-11-14T13:14:20.950Z,8.50
2022-11-14T13:19:41.550Z,8.50
2022-11-14T13:25:01.540Z,8.50
2022-11-14T13:30:08.163Z,8.60
2022-11-14T13:35:33.879Z,8.60
2022-11-14T13:41:13.453Z,8.60
2022-11-14T13:46:49.856Z,8.60
2022-11-14T13:51:53.889Z,8.60
2022-11-14T13:57:11.541Z,8.60
2022-11-14T14:02:29.290Z,8.60
2022-11-14T14:07:53.417Z,8.70
2022-11-14T14:13:20.942Z,8.70
2022-11-14T14:18:29.275Z,8.70
2022-11-14T14:23:43.247Z,8.70
2022-11-14T14:28:54.045Z,8.80
2022-11-14T14:33:56.216Z,8.70
2022-11-14T14:39:29.212Z,8.80
2022-11-14T14:44:37.039Z,8.80
2022-11-14T14:49:39.599Z,8.80
2022-11-14T14:54:41.307Z,8.80
2022-11-14T14:59:43.093Z,8.80
2022-11-14T15:04:44.984Z,8.80
2022-11-14T15:10:01.785Z,8.80
2022-11-14T15:15:04.443Z,8.80
2022-11-14T15:20:24.375Z,8.90
2022-11-14T15:25:26.278Z,8.80
2022-11-14T15:30:31.290Z,8.90
2022-11-14T15:35:35.234Z,8.90
2022-11-14T15:40:39.596Z,8.90
2022-11-14T15:45:41.416Z,8.80
2022-11-14T15:50:43.295Z,8.90
2022-11-14T15:55:44.993Z,8.90
2022-11-14T16:00:50.883Z,8.90
2022-11-14T16:05:52.759Z,8.90
2022-11-14T16:10:54.541Z,8.90
2022-11-14T16:15:56.324Z,8.90
2022-11-14T16:20:59.401Z,8.90
2022-11-14T16:26:01.283Z,9.00
2022-11-14T16:31:03.059Z,8.90
2022-11-14T16:36:04.978Z,8.90
2022-11-14T16:41:08.392Z,9.00
2022-11-14T16:46:11.838Z,9.00
2022-11-14T16:51:40.805Z,9.00
2022-11-14T16:56:35.381Z,9.00
2022-11-14T17:01:37.991Z,9.00
2022-11-14T17:06:39.892Z,9.00
2022-11-14T17:11:41.719Z,9.00
2022-11-14T17:16:43.480Z,9.00
2022-11-14T17:21:45.111Z,9.00
2022-11-14T17:26:46.848Z,9.00
2022-11-14T17:31:48.633Z,8.90
2022-11-14T17:36:50.352Z,8.90
2022-11-14T17:41:52.032Z,8.90
2022-11-14T17:46:53.810Z,8.90
2022-11-14T17:51:55.794Z,8.80
2022-11-14T17:56:58.919Z,8.80
2022-11-14T18:02:02.055Z,8.90
2022-11-14T18:07:03.812Z,8.70
2022-11-14T18:12:05.631Z,8.70
2022-11-14T18:17:12.801Z,8.70
2022-11-14T18:22:15.042Z,8.60
2022-11-14T18:27:16.734Z,8.50
2022-11-14T18:32:18.564Z,8.50
2022-11-14T18:37:20.311Z,8.50
2022-11-14T18:42:22.312Z,8.40
2022-11-14T18:47:23.978Z,8.50
2022-11-14T18:52:25.661Z,8.40
2022-11-14T18:57:27.371Z,8.40
2022-11-14T19:02:29.136Z,8.30
2022-11-14T19:07:31.037Z,8.30
2022-11-14T19:12:32.756Z,8.30
2022-11-14T19:17:34.424Z,8.30
2022-11-14T19:22:36.139Z,8.30
2022-11-14T19:27:38.263Z,8.40
2022-11-14T19:32:39.955Z,8.30
2022-11-14T19:37:41.707Z,8.40
2022-11-14T19:42:43.408Z,8.40
2022-11-14T19:47:45.084Z,8.50
2022-11-14T19:52:46.879Z,8.50
2022-11-14T19:57:48.599Z,8.50
2022-11-14T20:02:50.352Z,8.60
2022-11-14T20:07:53.820Z,8.60
2022-11-14T20:12:55.650Z,8.70
2022-11-14T20:17:57.616Z,8.80
2022-11-14T20:22:59.413Z,8.80
2022-11-14T20:28:01.714Z,8.90
2022-11-14T20:33:03.732Z,8.90
2022-11-14T20:38:05.983Z,9.00
2022-11-14T20:43:08.807Z,9.00
2022-11-14T20:48:10.491Z,9.20
2022-11-14T20:53:12.235Z,9.20
2022-11-14T20:58:14.058Z,9.30
2022-11-14T21:03:16.030Z,9.30
2022-11-14T21:08:19.042Z,9.40
2022-11-14T21:13:40.680Z,9.50
2022-11-14T21:18:47.767Z,9.50
2022-11-14T21:23:51.073Z,9.50
2022-11-14T21:28:55.329Z,9.50
2022-11-14T21:33:58.742Z,9.50
2022-11-14T21:39:00.581Z,9.60
2022-11-14T21:44:03.471Z,9.60
2022-11-14T21:49:05.201Z,9.70
2022-11-14T21:54:07.014Z,9.80
2022-11-14T21:59:16.661Z,10.00
2022-11-14T22:04:18.361Z,10.10
2022-11-14T22:09:20.459Z,10.20
2022-11-14T22:14:22.212Z,10.20
2022-11-14T22:19:24.331Z,10.30
2022-11-14T22:24:26.028Z,10.40
2022-11-14T22:29:27.707Z,10.40
2022-11-14T22:34:29.422Z,10.50
2022-11-14T22:39:31.016Z,10.50
2022-11-14T22:44:32.726Z,10.60
2022-11-14T22:49:34.372Z,10.60
2022-11-14T22:54:36.032Z,10.60
2022-11-14T22:59:37.750Z,10.70
2022-11-14T23:04:39.439Z,10.70
2022-11-14T23:09:43.574Z,10.80
2022-11-14T23:14:45.211Z,10.80
2022-11-14T23:19:46.908Z,11.00
2022-11-14T23:24:48.574Z,11.00
2022-11-14T23:29:50.197Z,11.00
2022-11-14T23:34:51.920Z,11.10
2022-11-14T23:39:53.550Z,11.10
2022-11-14T23:44:55.252Z,11.20
2022-11-14T23:49:56.946Z,11.20
2022-11-14T23:54:58.659Z,11.20
